Etusivu
METAR-TAF:

METAR-TAF

Lentoasemat :

Sotilaslentoasema

Meppen, Saksa

Leveyspiiri: 52-43-24N, Pituuspiiri: 007-19-35E, korkeus merenpinnasta: 21 m

Tämänhetkinen sää

Tämä raportti tehtiin 30 minuuttia sitten, kello 19.20 UTC
Tuuli 3 kn pohjoisesta/koillisesta
Lämpötila 4°C
Kosteus 81%
Ilmanpaine 1026 hPa

METAR: ETWM 211920Z AUTO 02003KT //// // ////// 04/01 Q1026 ///

Aika: 21:50 (19:50 UTC)


TAF: puuttuu

Säähavainnot ja -ennusteet yli 4000 lentoasemalta (METAR- ja TAF-raportit).

Käytössä olevat sääasemat on merkitty karttaan keltaisilla ja punaisilla pisteillä.

Aseta hiiri pisteen päälle nähdäksesi sääaseman nimen.

Klikkaa sitten nähdäksesi säähavainnot ja -ennusteet.

Kartan vaihtaminen: klikkaa mustalla rastilla varustettuja vihreitä pisteitä, niin voit zoomata sisään; viivalla varustettua vihreää pistettä, niin voit zoomata ulos tai vihreitä nuolia, niin pääset viereisille kartoille.


METAR-TAF: